createdAt,value
2018-02-13T10:03:18.731Z,676.87
2018-02-13T10:05:23.303Z,238.07
2018-02-13T10:07:28.021Z,81.53
2018-02-13T10:09:32.232Z,25.23
2018-02-13T10:11:36.059Z,16.87
2018-02-13T10:13:39.951Z,703.20
2018-02-13T10:15:44.916Z,662.70
2018-02-13T10:17:48.774Z,322.70
2018-02-13T10:19:53.740Z,253.37
2018-02-13T10:21:57.816Z,666.30
2018-02-13T10:24:02.047Z,358.17
2018-02-13T10:26:06.359Z,122.20
2018-02-13T10:28:10.239Z,657.97
2018-02-13T10:30:14.772Z,798.07
2018-02-13T10:32:19.238Z,503.90
2018-02-13T10:34:23.095Z,736.53
2018-02-13T10:36:27.357Z,1999.90
2018-02-13T10:38:31.604Z,1564.90
2018-02-13T10:40:35.467Z,741.97
2018-02-13T10:42:39.519Z,1931.60
2018-02-13T10:44:44.095Z,1999.90
2018-02-13T10:46:48.694Z,1999.90
2018-02-13T10:48:52.562Z,1999.90
2018-02-13T10:50:57.146Z,1999.90
2018-02-13T10:53:01.879Z,1121.90
2018-02-13T10:55:06.149Z,736.93
2018-02-13T10:57:10.028Z,570.97
2018-02-13T10:59:13.883Z,738.90
2018-02-13T11:01:22.050Z,1240.83
2018-02-13T11:03:25.952Z,1363.47
2018-02-13T11:05:29.845Z,892.03
2018-02-13T11:07:34.954Z,846.47
2018-02-13T11:09:38.851Z,1160.23
2018-02-13T11:11:42.780Z,1521.37
2018-02-13T11:13:47.219Z,890.57
2018-02-13T11:15:51.304Z,624.87
2018-02-13T11:17:55.186Z,336.10
2018-02-13T11:19:59.519Z,202.50
2018-02-13T11:22:05.117Z,68.47
2018-02-13T11:24:09.624Z,34.60
2018-02-13T11:26:14.245Z,16.73
2018-02-13T11:28:22.488Z,14.27
2018-02-13T11:30:26.586Z,12.00
2018-02-13T11:32:31.007Z,10.07
2018-02-13T11:34:35.568Z,10.30
2018-02-13T11:36:43.012Z,9.10
2018-02-13T11:38:47.343Z,10.00
2018-02-13T11:40:51.254Z,8.00
2018-02-13T11:42:55.282Z,12.60
2018-02-13T11:44:59.475Z,6.50
2018-02-13T11:47:03.411Z,6.60
2018-02-13T11:49:07.275Z,8.43
2018-02-13T11:51:12.998Z,8.20
2018-02-13T11:53:16.884Z,6.20
2018-02-13T11:55:20.760Z,6.70
2018-02-13T11:57:24.854Z,8.77
2018-02-13T11:59:28.758Z,7.20
2018-02-13T12:01:32.635Z,7.00
2018-02-13T12:03:36.830Z,7.57
2018-02-13T12:05:40.672Z,8.60
2018-02-13T12:07:44.599Z,50.93
2018-02-13T12:09:48.844Z,572.90
2018-02-13T12:11:52.696Z,1999.90
2018-02-13T12:13:56.914Z,1025.23
2018-02-13T12:16:01.059Z,627.80
2018-02-13T12:18:05.036Z,730.03
2018-02-13T12:20:08.886Z,1113.90
2018-02-13T12:22:13.074Z,875.70
2018-02-13T12:24:17.003Z,1141.77
2018-02-13T12:26:20.889Z,776.23
2018-02-13T12:28:26.613Z,625.87
2018-02-13T12:30:30.561Z,1071.43
2018-02-13T12:32:34.780Z,873.63
2018-02-13T12:34:39.581Z,833.10
2018-02-13T12:36:43.887Z,587.57
2018-02-13T12:38:48.494Z,609.03
2018-02-13T12:40:52.695Z,499.33
2018-02-13T12:42:57.098Z,644.90
2018-02-13T12:45:02.699Z,1052.93
2018-02-13T12:47:09.477Z,597.77
2018-02-13T12:49:16.101Z,647.57
2018-02-13T12:51:20.994Z,647.50
2018-02-13T12:53:24.832Z,827.73
2018-02-13T12:55:29.438Z,900.80
2018-02-13T12:57:33.284Z,1999.90
2018-02-13T12:59:37.116Z,806.37
2018-02-13T13:01:41.293Z,584.33
2018-02-13T13:03:45.771Z,730.23
2018-02-13T13:05:49.748Z,736.93
2018-02-13T13:07:53.897Z,564.03
2018-02-13T13:09:58.680Z,732.47
2018-02-13T13:12:02.624Z,663.33
2018-02-13T13:14:06.720Z,490.80
2018-02-13T13:16:10.619Z,377.37
2018-02-13T13:18:14.455Z,191.37
2018-02-13T13:20:19.716Z,314.50
2018-02-13T13:22:23.616Z,152.67
2018-02-13T13:24:27.511Z,111.30
2018-02-13T13:26:32.893Z,38.20
2018-02-13T13:28:36.697Z,12.23
2018-02-13T13:30:41.201Z,8.17
2018-02-13T13:32:45.306Z,9.07
2018-02-13T13:34:49.193Z,1191.93
2018-02-13T13:36:53.115Z,1999.90
2018-02-13T13:38:57.381Z,1999.90
2018-02-13T13:41:01.982Z,1999.90
2018-02-13T13:43:05.903Z,256.70
2018-02-13T13:45:10.036Z,174.97
2018-02-13T13:47:13.919Z,91.67
2018-02-13T13:49:17.837Z,254.30
2018-02-13T13:51:21.967Z,134.77
2018-02-13T13:53:26.112Z,993.00
2018-02-13T13:55:30.146Z,1999.90
2018-02-13T13:57:34.365Z,143.23
2018-02-13T13:59:38.200Z,286.37
2018-02-13T14:01:42.134Z,128.47
2018-02-13T14:03:46.315Z,816.63
2018-02-13T14:05:50.199Z,428.37
2018-02-13T14:07:53.999Z,120.90
2018-02-13T14:09:58.172Z,164.90
2018-02-13T14:12:01.976Z,34.53
2018-02-13T14:14:05.841Z,9.90
2018-02-13T14:16:09.983Z,6.60
2018-02-13T14:18:13.971Z,5.47
2018-02-13T14:20:17.850Z,4.80
2018-02-13T14:22:21.945Z,5.33
2018-02-13T14:24:25.806Z,196.87
2018-02-13T14:26:29.890Z,12.30
2018-02-13T14:28:34.082Z,34.73
2018-02-13T14:30:37.956Z,159.90
2018-02-13T14:32:41.832Z,200.53
2018-02-13T14:34:45.971Z,1999.90
2018-02-13T14:36:49.831Z,392.40
2018-02-13T14:38:53.709Z,298.07
2018-02-13T14:40:57.869Z,1999.90
2018-02-13T14:43:01.778Z,588.13
2018-02-13T14:45:05.701Z,1999.90
2018-02-13T14:47:09.811Z,516.30
2018-02-13T14:49:14.414Z,480.33
2018-02-13T14:51:18.365Z,443.60
2018-02-13T14:53:22.530Z,834.43
2018-02-13T14:55:26.744Z,449.33
2018-02-13T14:57:30.612Z,439.13
2018-02-13T14:59:34.734Z,266.87
2018-02-13T15:01:38.631Z,158.37
2018-02-13T15:03:42.455Z,180.07
2018-02-13T15:05:46.575Z,229.07
2018-02-13T15:07:50.603Z,84.77
2018-02-13T15:09:54.518Z,1999.90
2018-02-13T15:11:59.561Z,1999.90
2018-02-13T15:14:04.288Z,1999.90
2018-02-13T15:16:08.280Z,1111.77
2018-02-13T15:20:21.521Z,356.33
2018-02-13T15:23:29.288Z,497.97
2018-02-13T15:25:36.036Z,1999.90
2018-02-13T15:27:41.342Z,474.73
2018-02-13T15:29:46.800Z,1999.90
2018-02-13T15:31:52.348Z,664.43
2018-02-13T15:33:59.225Z,246.13
2018-02-13T15:36:04.572Z,227.13
2018-02-13T15:38:10.095Z,239.63
2018-02-13T15:40:15.334Z,139.63
2018-02-13T15:42:20.684Z,45.57
2018-02-13T15:44:26.321Z,15.20
2018-02-13T15:46:33.440Z,8.77
2018-02-13T15:48:38.856Z,7.23
2018-02-13T15:50:44.468Z,263.00
2018-02-13T15:52:49.758Z,844.43
2018-02-13T15:54:55.004Z,91.73
2018-02-13T15:57:00.596Z,276.17
2018-02-13T15:59:05.887Z,38.80
2018-02-13T16:01:11.255Z,427.90
2018-02-13T16:03:16.930Z,217.97
2018-02-13T16:05:22.312Z,944.83
2018-02-13T16:07:27.584Z,104.00
2018-02-13T16:09:34.861Z,1020.43
2018-02-13T16:11:40.144Z,479.23
2018-02-13T16:13:45.599Z,259.13
2018-02-13T16:15:51.225Z,580.27
2018-02-13T16:17:56.599Z,110.43
2018-02-13T16:20:02.426Z,298.63
2018-02-13T16:22:08.075Z,117.40
2018-02-13T16:24:13.720Z,46.63
2018-02-13T16:26:19.371Z,20.60
2018-02-13T16:28:24.979Z,15.27
2018-02-13T16:30:30.430Z,14.60
2018-02-13T16:32:37.776Z,8.50
2018-02-13T16:34:43.615Z,9.97
2018-02-13T16:36:49.756Z,7.43
2018-02-13T16:38:55.035Z,15.00
2018-02-13T16:41:00.757Z,244.73
2018-02-13T16:43:06.491Z,657.33
2018-02-13T16:45:12.124Z,671.33
2018-02-13T16:47:17.808Z,437.53
2018-02-13T16:49:24.014Z,773.77
2018-02-13T16:51:29.248Z,1749.13
2018-02-13T16:53:36.027Z,795.60
2018-02-13T16:55:41.641Z,515.97
2018-02-13T16:57:46.992Z,248.13
2018-02-13T16:59:52.624Z,71.93
2018-02-13T17:03:22.569Z,675.13
2018-02-13T17:05:28.341Z,571.57
2018-02-13T17:07:33.769Z,177.43
2018-02-13T17:09:39.077Z,487.57
2018-02-13T17:11:47.818Z,934.03
2018-02-13T17:13:53.109Z,825.73
2018-02-13T17:15:59.407Z,1068.90
2018-02-13T17:18:06.340Z,963.03
2018-02-13T17:20:12.604Z,394.37
2018-02-13T17:22:18.048Z,214.67
2018-02-13T17:24:25.271Z,78.03
2018-02-13T17:26:30.602Z,38.93
2018-02-13T17:28:36.042Z,17.80
2018-02-13T17:30:41.773Z,13.00
2018-02-13T17:32:47.287Z,9.47
2018-02-13T17:34:52.673Z,9.17
2018-02-13T17:36:58.255Z,10.00
2018-02-13T17:39:03.634Z,11.30
2018-02-13T17:41:13.333Z,141.83
2018-02-13T17:43:19.032Z,896.10
2018-02-13T17:45:24.444Z,1594.00
2018-02-13T17:47:29.732Z,1668.33
2018-02-13T17:49:37.274Z,1430.27
2018-02-13T17:51:42.629Z,1411.27
2018-02-13T17:53:48.103Z,1685.70
2018-02-13T17:55:53.681Z,1245.87
2018-02-13T17:57:59.321Z,853.10
2018-02-13T18:00:04.874Z,552.33
2018-02-13T18:02:10.500Z,288.30
2018-02-13T18:04:15.820Z,142.77
2018-02-13T18:06:21.682Z,77.33
2018-02-13T18:08:27.320Z,40.60
2018-02-13T18:10:32.682Z,20.70
2018-02-13T18:12:38.060Z,15.17
2018-02-13T18:14:43.700Z,440.87
2018-02-13T18:16:49.640Z,1001.33
2018-02-13T18:18:55.996Z,155.03
2018-02-13T18:21:01.561Z,48.97
2018-02-13T18:23:07.269Z,16.47
2018-02-13T18:25:13.712Z,12.63
2018-02-13T18:27:19.347Z,12.80
2018-02-13T18:29:24.729Z,10.20
2018-02-13T18:31:30.161Z,9.83
2018-02-13T18:33:37.202Z,9.30
2018-02-13T18:35:42.516Z,8.67
2018-02-13T18:37:48.718Z,922.87
2018-02-13T18:39:54.448Z,1239.10
2018-02-13T18:42:00.613Z,1525.93
2018-02-13T18:44:06.489Z,1338.63
2018-02-13T18:46:12.214Z,821.00
2018-02-13T18:48:18.006Z,360.60
2018-02-13T18:50:24.639Z,633.53
2018-02-13T18:54:38.322Z,616.97
2018-02-13T18:56:44.302Z,988.60
2018-02-13T18:58:50.505Z,1210.90
2018-02-13T19:00:55.864Z,1319.17
2018-02-13T19:03:02.007Z,640.30
2018-02-13T19:05:08.543Z,611.70
2018-02-13T19:07:14.075Z,1130.37
2018-02-13T19:09:20.094Z,701.93
2018-02-13T19:11:25.999Z,559.13
2018-02-13T19:13:34.595Z,1413.53
2018-02-13T19:15:40.261Z,754.73
2018-02-13T19:17:46.025Z,413.70
2018-02-13T19:19:54.924Z,399.20
2018-02-13T19:22:02.390Z,127.67
2018-02-13T19:24:08.520Z,43.27
2018-02-13T19:26:14.150Z,694.60
2018-02-13T19:28:19.629Z,1384.97
2018-02-13T19:30:25.821Z,1109.03
2018-02-13T19:32:32.731Z,1225.23
2018-02-13T19:34:38.632Z,411.63
2018-02-13T19:36:44.768Z,416.97
2018-02-13T19:38:50.537Z,106.80
2018-02-13T19:40:56.167Z,37.93
2018-02-13T19:43:01.835Z,19.13
2018-02-13T19:45:07.938Z,13.23
2018-02-13T19:47:13.515Z,12.37
2018-02-13T19:49:19.089Z,11.73
2018-02-13T19:51:24.497Z,11.73
2018-02-13T19:53:30.020Z,10.30
2018-02-13T19:55:37.041Z,12.07
2018-02-13T19:57:42.471Z,10.70
2018-02-13T19:59:48.064Z,11.13
2018-02-13T20:01:54.843Z,11.03
2018-02-13T20:04:04.447Z,14.30
2018-02-13T20:06:10.202Z,10.57
2018-02-13T20:08:16.416Z,10.30
2018-02-13T20:10:24.963Z,10.03
2018-02-13T20:12:31.189Z,9.13
2018-02-13T20:14:37.020Z,8.83
2018-02-13T20:16:44.381Z,9.20
2018-02-13T20:18:54.610Z,83.77
2018-02-13T20:21:00.377Z,1150.83
2018-02-13T20:23:12.348Z,1122.27
2018-02-13T20:25:18.606Z,933.70
2018-02-13T20:27:24.582Z,1001.50
2018-02-13T20:29:30.060Z,1096.80
2018-02-13T20:31:36.360Z,1555.47
2018-02-13T20:33:42.143Z,1982.57
2018-02-13T20:35:47.570Z,1468.80
2018-02-13T20:37:53.126Z,924.53
2018-02-13T20:39:58.949Z,579.67
2018-02-13T20:42:04.680Z,1453.93
2018-02-13T20:44:10.088Z,1041.50
2018-02-13T20:46:15.746Z,696.20
2018-02-13T20:48:21.286Z,757.30
2018-02-13T20:50:26.690Z,988.80
2018-02-13T20:52:32.292Z,527.17
2018-02-13T20:54:37.904Z,298.57
2018-02-13T20:56:43.707Z,128.10
2018-02-13T20:58:50.846Z,60.50
2018-02-13T21:00:56.596Z,135.07
2018-02-13T21:03:01.944Z,877.33
2018-02-13T21:05:08.124Z,1080.17
2018-02-13T21:07:13.868Z,1200.37
2018-02-13T21:09:19.358Z,1218.97
2018-02-13T21:11:24.977Z,720.23
2018-02-13T21:13:30.579Z,442.83
2018-02-13T21:15:36.756Z,210.83
2018-02-13T21:17:43.196Z,81.00
2018-02-13T21:19:48.949Z,800.33
2018-02-13T21:21:54.473Z,836.83
2018-02-13T21:24:00.274Z,784.13
2018-02-13T21:26:05.715Z,927.47
2018-02-13T21:28:11.249Z,1239.97
2018-02-13T21:30:17.189Z,1163.53
2018-02-13T21:32:23.741Z,1571.30
2018-02-13T21:34:29.358Z,1192.53
2018-02-13T21:36:35.312Z,847.67
2018-02-13T21:38:40.970Z,823.67
2018-02-13T21:40:46.938Z,1228.40
2018-02-13T21:42:53.151Z,1016.77
2018-02-13T21:44:58.834Z,1333.30
2018-02-13T21:47:04.827Z,1427.00
2018-02-13T21:49:10.569Z,1306.17
2018-02-13T21:51:17.340Z,871.83
2018-02-13T21:53:22.629Z,578.93
2018-02-13T21:55:29.476Z,440.13
2018-02-13T21:57:37.246Z,227.37
2018-02-13T21:59:43.239Z,111.07
2018-02-13T22:01:49.762Z,55.10
2018-02-13T22:03:55.473Z,26.13
2018-02-13T22:06:00.804Z,24.03
2018-02-13T22:08:06.463Z,24.80
2018-02-13T22:10:11.844Z,14.00
2018-02-13T22:12:21.175Z,14.13
2018-02-13T22:14:26.716Z,12.83
2018-02-13T22:16:31.995Z,12.27
2018-02-13T22:18:37.280Z,12.10
2018-02-13T22:20:43.751Z,12.27
2018-02-13T22:22:49.178Z,198.83
2018-02-13T22:24:55.083Z,702.97
2018-02-13T22:27:00.712Z,1560.33
2018-02-13T22:29:06.062Z,1065.43
2018-02-13T22:31:11.324Z,925.20
2018-02-13T22:33:17.271Z,1017.50
2018-02-13T22:35:26.728Z,1255.73
2018-02-13T22:37:32.075Z,1200.73
2018-02-13T22:39:38.036Z,1336.33
2018-02-13T22:41:44.161Z,1416.50
2018-02-13T22:43:49.786Z,858.50
2018-02-13T22:45:55.566Z,984.13
2018-02-13T22:48:00.937Z,1141.03
2018-02-13T22:50:06.864Z,676.53
2018-02-13T22:52:13.163Z,144.57
2018-02-13T22:54:18.637Z,55.03
2018-02-13T22:56:24.179Z,40.70
2018-02-13T22:58:30.196Z,25.73
2018-02-13T23:00:35.617Z,19.07
2018-02-13T23:02:41.036Z,19.63
2018-02-13T23:04:46.732Z,18.63
2018-02-13T23:06:52.561Z,18.60
2018-02-13T23:08:59.053Z,15.43
2018-02-13T23:11:04.826Z,20.60
2018-02-13T23:13:10.481Z,14.77
2018-02-13T23:15:15.894Z,14.80
2018-02-13T23:17:21.482Z,16.03
2018-02-13T23:19:26.778Z,15.07
2018-02-13T23:21:32.123Z,15.27
2018-02-13T23:23:37.769Z,14.73
2018-02-13T23:25:43.092Z,14.40
2018-02-13T23:27:48.383Z,16.43
2018-02-13T23:29:54.638Z,14.03
2018-02-13T23:32:00.038Z,14.70
2018-02-13T23:34:05.375Z,14.13
2018-02-13T23:36:10.988Z,15.57
2018-02-13T23:38:16.316Z,14.03
2018-02-13T23:40:21.704Z,14.10
2018-02-13T23:42:27.244Z,13.47
2018-02-13T23:44:32.507Z,14.00
2018-02-13T23:46:38.345Z,12.83
2018-02-13T23:48:44.748Z,12.50
2018-02-13T23:50:50.741Z,12.00
2018-02-13T23:52:56.736Z,13.23
2018-02-13T23:55:03.060Z,12.67
2018-02-13T23:57:08.342Z,12.83
2018-02-13T23:59:13.900Z,13.03
